Address 0x6b70f0136a7e2bd1fa945566b82b208760632b2e 5

 

Overview

ApeRocket: Deployer
Balance:
906.499569013520132673 BNB

BNB Value:
$338,133.40 (@ $373.01/BNB)

Token:
 
Txn Hash Method
Block
From
To
Value [Txn Fee]
0xf9235a864e1487fca3393d9f77dad7db207a62b6977a6ec6548a992fac5cfc6dHarvest110856142021-09-20 18:01:233 mins agoApeRocket: DeployerOUT 0x274b5b7868c848ac690dc9b4011e9e7e291337000 BNB0.0009481212
0x445745216384aebc4088068e7bc0b06062cb6ae4ea2a3bfbab7fd7d90d4500f5Harvest110856142021-09-20 18:01:233 mins agoApeRocket: DeployerOUT 0x6708b15e3b845768712bc78a182c76fdc30b84210 BNB0.0014805856
0x4b5dc9a44e2b67ba91035081fd8cc1406f6aaddcd7c9b42471cd94f97eafcd12Harvest110856142021-09-20 18:01:233 mins agoApeRocket: DeployerOUT 0xdc8b4abb0053e8443b964fb4c0680b55e21ca87d0 BNB0.0012202736
0x7c72a823af2ff033805fadbe501a01fb6e9bf9783a54cc4eabc7aeeea740d849Harvest110856142021-09-20 18:01:233 mins agoApeRocket: DeployerOUT 0xeabbe6225f82655032ff049dfa461785a19655430 BNB0.00337662
0xffdb9bfcb3d38b3cb98e4e3de2867fa8fe80ac0378ee9b0d2abeb0274979147fHarvest110856142021-09-20 18:01:233 mins agoApeRocket: DeployerOUT 0x542618f90f2ca668d12d53b50b5008c2b3acece70 BNB0.0012202736
0x709c45488457cfa9323cb90031efbb9eb382312edf685b164f9f2f709cec3ea7Harvest110856142021-09-20 18:01:233 mins agoApeRocket: DeployerOUT 0x9a9d0374e05589c3f0b5c27b32119800a2e295ca0 BNB0.00272584
0x479307cbb875d89c32c5b04a86392fe093f889aac2b2e8d14e0a0ad91a6e81cdHarvest110856142021-09-20 18:01:233 mins agoApeRocket: DeployerOUT 0xb8fda49a709e9d00274053d9ed34cca1b4bb21f80 BNB0.0002514564
0x9142fd19093dc5b7a122ce93f967332c3f86a1c6217ad6cced6b33f54232f2daHarvest110856142021-09-20 18:01:233 mins agoApeRocket: DeployerOUT 0xe927c82e2ec5c2e045d58145854b8fad48a3283a0 BNB0.0024084528
0x361fd3d22daae9149186b2bbded4a760bd581245d8656dcd9dd64d554a468f99Harvest110856142021-09-20 18:01:233 mins agoApeRocket: DeployerOUT 0x9d82bb1983409bf79e599019f948ec36a3bb05ad0 BNB0.0021160412
0xda7bf2511ede410b228c0aa53bbfd8200fe59af85050d6168e3e41925ed009e8Harvest110856142021-09-20 18:01:233 mins agoApeRocket: DeployerOUT 0xad1e51d935d6d25b6483f6846b5bbbc1e20df3ef0 BNB0.0016683056
0xd9710466699a7c45811dfae2ce10ebcaa96b2ae65729c74c1700f57b08e10fd5Harvest110856142021-09-20 18:01:233 mins agoApeRocket: DeployerOUT 0xd0177e5bde32765d1493d80f9b343a4e52010f5d0 BNB0.0014805856
0xd15eb765ffe5c37bdc6437e2abd7ffe93a6f5a7743c7de15bfe0c0e8c32a5c08Harvest110856142021-09-20 18:01:233 mins agoApeRocket: DeployerOUT 0x858cd232b2236da873f8f72518a6ded3eba7f1af0 BNB0.0014805856
0x350f06ef247ba74f4bc41308b5f504662101b1e49934617eb97439d9921f0617Harvest110856142021-09-20 18:01:233 mins agoApeRocket: DeployerOUT 0x5f7faefc9606ffe8b519ddc2acf3a12e5767a7ee0 BNB0.0019904404
0x03457dc77adf3f51ea3797e60d8fffb9579df9ee68e248e497c89668b6c78bd8Harvest110844172021-09-20 17:01:321 hr 2 mins agoApeRocket: DeployerOUT 0x274b5b7868c848ac690dc9b4011e9e7e291337000 BNB0.0009481212
0xcdb24b62d9701d745f968ca3702ab30a098d8886cbca8b58db485b5dd37b96f8Harvest110844162021-09-20 17:01:291 hr 2 mins agoApeRocket: DeployerOUT 0x6708b15e3b845768712bc78a182c76fdc30b84210 BNB0.0014805856
0x2ed074a21c20af27f4d86857fc9ca69a0ad51ba140bf3924dcf33843c51e86aaHarvest110844162021-09-20 17:01:291 hr 2 mins agoApeRocket: DeployerOUT 0xdc8b4abb0053e8443b964fb4c0680b55e21ca87d0 BNB0.0012202736
0x7681df0cfb0b30d9d3d4c4bea22146f545ef783fbf055ad82d81c2fe8b3a232dHarvest110844162021-09-20 17:01:291 hr 2 mins agoApeRocket: DeployerOUT 0xeabbe6225f82655032ff049dfa461785a19655430 BNB0.0035032088
0xe19e84af7e25e1794474c0f014a7ca38ba3d67f64cf75400c9e736da9e7a0260Harvest110844162021-09-20 17:01:291 hr 2 mins agoApeRocket: DeployerOUT 0x542618f90f2ca668d12d53b50b5008c2b3acece70 BNB0.0019904404
0xd53029f1a303d62542b11cc91ac08c341b3c325e03fcb75f55f93380e140977cHarvest110844152021-09-20 17:01:261 hr 2 mins agoApeRocket: DeployerOUT 0x9a9d0374e05589c3f0b5c27b32119800a2e295ca0 BNB0.00272584
0x33bd351f46325a5a0904b2669795c7576312ab7ea4e277c95aecf014601312b4Harvest110844152021-09-20 17:01:261 hr 2 mins agoApeRocket: DeployerOUT 0xb8fda49a709e9d00274053d9ed34cca1b4bb21f80 BNB0.000959062
0xda56be5f98aee31a84029b21ac4c786452ca9bc66dcac19bfce976b089c38631Harvest110844152021-09-20 17:01:261 hr 2 mins agoApeRocket: DeployerOUT 0xe927c82e2ec5c2e045d58145854b8fad48a3283a0 BNB0.0026687648
0x846f540971ae40af19ba5677a30d45b20cbda8dd71f72e9ef0fb7ec70f21bd7eHarvest110844152021-09-20 17:01:261 hr 2 mins agoApeRocket: DeployerOUT 0x9d82bb1983409bf79e599019f948ec36a3bb05ad0 BNB0.0024318632
0xd20c148a05d070eeb34531bcc513f277ee95f3b13243c3ca836065eff71708a8Harvest110844152021-09-20 17:01:261 hr 2 mins agoApeRocket: DeployerOUT 0xad1e51d935d6d25b6483f6846b5bbbc1e20df3ef0 BNB0.0019286176
0x27c023c94c150a3754a8aaa72ffac27d19fd88081457465eb83a874d5dd79d11Harvest110844142021-09-20 17:01:231 hr 3 mins agoApeRocket: DeployerOUT 0xd0177e5bde32765d1493d80f9b343a4e52010f5d0 BNB0.0020163156
0x335cbbaf4587249f3e64730a22f0b36cccd38c371b8ddb8b1ad1ae767aa9542aHarvest110844142021-09-20 17:01:231 hr 3 mins agoApeRocket: DeployerOUT 0x858cd232b2236da873f8f72518a6ded3eba7f1af0 BNB0.0020163156
[ Download CSV Export 

OVERVIEW

Deployer's address for ApeRocket.

Latest 12 internal transactions
Parent Txn Hash Block From To Value
0xc36645b7e6d48d5e10c8e0fb820701c20167a75cd1090361570390238adda6f699358422021-08-11 10:59:5540 days 7 hrs ago PancakeSwap: Router v2ApeRocket: Deployer0.004079547531235832 BNB
0xb290418f812aab316c1d1e6daa9895a33dcce7edbdca68f3134ae7f792878eae91283152021-07-13 18:59:4868 days 23 hrs ago PancakeSwap: Router v2ApeRocket: Deployer0.004696137307043462 BNB
0x92f0f957bf7b18726698649ec016b63ea8e8b81e3478e617927b1988224f26fd89233402021-07-06 16:08:1776 days 1 hr ago 0xcf0febd3f17cef5b47b0cd257acf6025c5bff3b7ApeRocket: Deployer0.078352867628386354 BNB
0x7e312864ee9d5af8edb8138c1037019500b71ed2017e44faed632146dec0182178355432021-05-29 16:23:32114 days 1 hr ago 0xc0788a3ad43d79aa53b09c2eacc313a787d1d607ApeRocket: Deployer6.125271099930803049 BNB
0x04dfe272c2167f58ac3acac383ff58b79e47813b7dceeaa5d294e0a6c430667e78354972021-05-29 16:21:13114 days 1 hr ago 0xc0788a3ad43d79aa53b09c2eacc313a787d1d607ApeRocket: Deployer6.086061756788402446 BNB
0x996a99a10262378aa3876a44bc538166ac2a37892d8e2296ad033986548cb16778349872021-05-29 15:55:32114 days 2 hrs ago 0xc0788a3ad43d79aa53b09c2eacc313a787d1d607ApeRocket: Deployer0.361267996994391201 BNB
0x7728679fc8ca98fcfe83743bc7aea6cbbbc69eeae2876f8f3660f556dc97d7e177567682021-05-26 22:27:23116 days 19 hrs ago 0xa06ea1156039a22408d1425c2c4257aeb0919064ApeRocket: Deployer1.985827853969467813 BNB
0xa05e7dad65faf9e6bc4e9081df1164be76c222d58be43d34521acb9ef6cbef5977562862021-05-26 22:03:17116 days 20 hrs ago 0xc0788a3ad43d79aa53b09c2eacc313a787d1d607ApeRocket: Deployer13.365949895727497573 BNB
0xfa7874b6dc249bbe655106cf3522e7008f36937ba535f535e594a75e05c2427177562052021-05-26 21:59:14116 days 20 hrs ago 0xc0788a3ad43d79aa53b09c2eacc313a787d1d607ApeRocket: Deployer13.398026927973892096 BNB
0x5b93679b849c31e11ef692a5e24ceca853fcf808957ecefef855426a38af31fa77554182021-05-26 21:19:53116 days 20 hrs ago 0xc0788a3ad43d79aa53b09c2eacc313a787d1d607ApeRocket: Deployer0.656464747510247675 BNB
0x8684b53be4c8ceddf1b448b3c3e1874a3a9e01e9cf12fb9691a7e62ebd087c0d74982172021-05-17 21:17:12125 days 20 hrs ago 0xc0788a3ad43d79aa53b09c2eacc313a787d1d607ApeRocket: Deployer0.000059419678307501 BNB
0x6dabbb8549bce30c788ac52045c9785d8293b241189b80934fe462726ebbd2fe71969802021-05-06 22:07:32136 days 19 hrs ago PancakeSwap: RouterApeRocket: Deployer0.00086728865184691 BNB
[ Download CSV Export 
Loading

Contract Name:
0 BNB

Compiler Version
0

Optimization Enabled:
0 BNB

Other Settings:
-NA-
Block Transaction Gas Used Reward
Age Block Fee Address BC Fee Address Voting Power Jailed Incoming
Block Uncle Number Difficulty Gas Used Reward
Loading
Loading
Make sure to use the "Vote Down" button for any spammy posts, and the "Vote Up" for interesting conversations.